Time;durP1;ratioP1;P1;durP2;ratioP2;P2;SDS_P1;SDS_P2;PMS_P1;PMS_P2;Temp;Humidity;BMP_temperature;BMP_pressure;BME280_temperature;BME280_humidity;BME280_pressure;Samples;Min_cycle;Max_cycle;Signal;HPM_P1;HPM_P2
2024/01/08 00:00:58;;;;;;;10.80;8.65;;;-3.00;99.90;;;;;;5069205;28;20475;-64
2024/01/08 00:03:23;;;;;;;10.10;8.57;;;-3.00;99.90;;;;;;5070525;28;20493;-63
2024/01/08 00:05:49;;;;;;;10.03;8.23;;;-3.00;99.90;;;;;;5067518;28;20787;-63
2024/01/08 00:08:15;;;;;;;10.57;8.80;;;-3.00;99.90;;;;;;5065893;28;20425;-63
2024/01/08 00:10:41;;;;;;;11.73;8.52;;;-3.00;99.90;;;;;;5068639;28;20761;-63
2024/01/08 00:13:08;;;;;;;11.67;8.53;;;-3.00;99.90;;;;;;5068615;28;20395;-64
2024/01/08 00:15:34;;;;;;;10.07;8.45;;;-3.00;99.90;;;;;;5068130;28;20430;-63
2024/01/08 00:18:00;;;;;;;9.23;8.23;;;-3.00;99.90;;;;;;5050394;28;20471;-63
2024/01/08 00:20:26;;;;;;;9.50;8.18;;;-3.00;99.90;;;;;;5068417;28;20406;-63
2024/01/08 00:22:52;;;;;;;10.35;8.40;;;-3.00;99.90;;;;;;5068804;28;20395;-63
2024/01/08 00:25:21;;;;;;;11.00;9.00;;;-3.00;99.90;;;;;;5042323;28;20827;-63
2024/01/08 00:27:48;;;;;;;8.97;8.07;;;-3.00;99.90;;;;;;5063749;28;20407;-63
2024/01/08 00:30:15;;;;;;;9.55;8.18;;;-3.10;99.90;;;;;;5071360;28;20408;-64
2024/01/08 00:32:41;;;;;;;9.38;8.35;;;-3.10;99.90;;;;;;5071026;28;20431;-63
2024/01/08 00:35:07;;;;;;;11.43;8.77;;;-3.10;99.90;;;;;;5071961;28;21450;-63
2024/01/08 00:37:52;;;;;;;10.85;8.82;;;-3.10;99.90;;;;;;5072163;28;20406;-63
2024/01/08 00:40:19;;;;;;;11.10;8.77;;;-3.10;99.90;;;;;;5068844;28;20387;-63
2024/01/08 00:42:44;;;;;;;10.18;8.55;;;-3.00;99.90;;;;;;5070823;28;20449;-64
2024/01/08 00:45:10;;;;;;;9.63;8.45;;;-3.00;99.90;;;;;;5072126;28;20401;-63
2024/01/08 00:47:36;;;;;;;10.00;8.40;;;-2.90;99.90;;;;;;5068845;28;20427;-63
2024/01/08 00:50:02;;;;;;;12.30;8.63;;;-2.90;99.90;;;;;;5069961;28;20417;-63
2024/01/08 00:52:28;;;;;;;9.50;8.38;;;-2.80;99.90;;;;;;5071947;28;20411;-63
2024/01/08 00:54:54;;;;;;;9.37;8.03;;;-2.70;99.90;;;;;;5071639;28;20431;-63
2024/01/08 00:57:20;;;;;;;10.07;9.00;;;-2.60;99.90;;;;;;5070652;28;20407;-63
2024/01/08 00:59:46;;;;;;;10.97;8.60;;;-2.60;99.90;;;;;;5072109;28;20402;-63
2024/01/08 01:02:11;;;;;;;10.80;8.50;;;-2.60;99.90;;;;;;5036274;28;20489;-63
2024/01/08 01:04:37;;;;;;;9.68;8.50;;;-2.50;99.90;;;;;;5070583;28;20916;-64
2024/01/08 01:07:03;;;;;;;10.60;8.10;;;-2.50;99.90;;;;;;5070846;28;20415;-64
2024/01/08 01:09:29;;;;;;;10.50;8.80;;;-2.50;99.90;;;;;;5071086;28;20780;-64
2024/01/08 01:11:56;;;;;;;9.35;8.27;;;-2.50;99.90;;;;;;5053714;28;20396;-64
2024/01/08 01:14:21;;;;;;;10.40;8.30;;;-2.50;99.90;;;;;;5073051;28;20431;-64
2024/01/08 01:16:47;;;;;;;11.35;8.93;;;-2.40;99.90;;;;;;5069683;28;21144;-64
2024/01/08 01:19:13;;;;;;;10.32;8.57;;;-2.40;99.90;;;;;;5071898;28;20912;-64
2024/01/08 01:21:39;;;;;;;9.43;8.20;;;-2.40;99.90;;;;;;5070152;28;20423;-64
2024/01/08 01:24:05;;;;;;;10.07;8.35;;;-2.30;99.90;;;;;;5070097;28;20423;-64
2024/01/08 01:26:31;;;;;;;10.20;9.10;;;-2.30;99.90;;;;;;5070704;28;20916;-64
2024/01/08 01:28:57;;;;;;;9.25;8.05;;;-2.30;99.90;;;;;;5071034;28;20903;-64
2024/01/08 01:31:22;;;;;;;10.23;8.23;;;-2.20;99.90;;;;;;5069638;28;20399;-64
2024/01/08 01:33:48;;;;;;;9.35;8.18;;;-2.20;99.90;;;;;;5071112;28;20511;-64
2024/01/08 01:36:14;;;;;;;9.50;8.50;;;-2.20;99.90;;;;;;5068929;28;21000;-64
2024/01/08 01:38:39;;;;;;;9.20;8.17;;;-2.20;99.90;;;;;;5070781;28;20399;-64
2024/01/08 01:41:05;;;;;;;9.57;8.57;;;-2.10;99.90;;;;;;5069033;28;20492;-64
2024/01/08 01:43:32;;;;;;;9.63;8.43;;;-2.10;99.90;;;;;;5070582;28;20414;-64
2024/01/08 01:46:06;;;;;;;11.52;8.50;;;-2.10;99.90;;;;;;5070240;28;20415;-64
2024/01/08 01:48:32;;;;;;;9.77;8.77;;;-2.10;99.90;;;;;;5070727;28;20396;-64
2024/01/08 01:50:58;;;;;;;10.27;8.90;;;-2.00;99.90;;;;;;5070940;28;20414;-64
2024/01/08 01:53:24;;;;;;;12.23;9.88;;;-2.00;99.90;;;;;;5068476;28;20441;-64
2024/01/08 01:55:52;;;;;;;11.52;9.00;;;-2.00;99.90;;;;;;5070369;28;20426;-64
2024/01/08 01:58:18;;;;;;;12.05;9.30;;;-2.00;99.90;;;;;;5068344;28;20953;-64
2024/01/08 02:00:44;;;;;;;11.13;9.37;;;-2.00;99.90;;;;;;5070484;28;20534;-64
2024/01/08 02:03:11;;;;;;;12.63;9.53;;;-2.00;99.90;;;;;;5069259;28;20395;-64
2024/01/08 02:05:37;;;;;;;10.88;9.77;;;-1.90;99.90;;;;;;5066535;28;20461;-64
2024/01/08 02:08:03;;;;;;;11.55;10.35;;;-1.90;99.90;;;;;;5070587;28;20733;-64
2024/01/08 02:10:29;;;;;;;12.23;9.80;;;-1.80;99.90;;;;;;5051235;28;20427;-64
2024/01/08 02:12:55;;;;;;;11.85;10.35;;;-1.80;99.90;;;;;;5069749;28;20888;-64
2024/01/08 02:15:21;;;;;;;12.05;9.68;;;-1.80;99.90;;;;;;5068190;28;20428;-64
2024/01/08 02:17:46;;;;;;;11.75;10.13;;;-1.80;99.90;;;;;;5070401;28;20402;-64
2024/01/08 02:20:12;;;;;;;11.68;10.05;;;-1.80;99.90;;;;;;5069083;28;20904;-64
2024/01/08 02:22:41;;;;;;;12.23;10.20;;;-1.80;99.90;;;;;;5068060;28;20435;-64
2024/01/08 02:25:08;;;;;;;17.42;10.15;;;-1.80;99.90;;;;;;5074112;28;20486;-64
2024/01/08 02:27:34;;;;;;;13.57;10.73;;;-1.80;99.90;;;;;;5066752;28;20395;-64
2024/01/08 02:30:00;;;;;;;11.98;10.48;;;-1.80;99.90;;;;;;5069732;28;20388;-65
2024/01/08 02:32:25;;;;;;;10.93;9.70;;;-1.80;99.90;;;;;;5070920;28;20934;-64
2024/01/08 02:34:51;;;;;;;13.43;10.60;;;-1.80;99.90;;;;;;5067959;28;20424;-64
2024/01/08 02:37:17;;;;;;;12.80;10.43;;;-1.70;99.90;;;;;;5070007;28;20482;-64
2024/01/08 02:39:43;;;;;;;12.33;10.20;;;-1.70;99.90;;;;;;5063750;28;20396;-64
2024/01/08 02:42:08;;;;;;;11.95;10.63;;;-1.70;99.90;;;;;;5051847;28;20435;-64
2024/01/08 02:44:34;;;;;;;12.75;10.77;;;-1.70;99.90;;;;;;5067846;28;20400;-64
2024/01/08 02:47:01;;;;;;;14.43;11.20;;;-1.70;99.90;;;;;;5067642;28;20461;-64
2024/01/08 02:49:27;;;;;;;13.73;11.53;;;-1.70;99.90;;;;;;5069900;28;20395;-64
2024/01/08 02:51:53;;;;;;;12.38;11.07;;;-1.60;99.90;;;;;;5068595;28;20419;-65
2024/01/08 02:54:19;;;;;;;14.18;11.57;;;-1.60;99.90;;;;;;5068692;28;20420;-64
2024/01/08 02:56:44;;;;;;;14.07;11.73;;;-1.60;99.90;;;;;;5068239;28;20411;-64
2024/01/08 02:59:10;;;;;;;14.45;11.65;;;-1.60;99.90;;;;;;5048429;28;20411;-64
2024/01/08 03:01:37;;;;;;;12.55;10.93;;;-1.60;99.90;;;;;;5051695;28;20469;-64
2024/01/08 03:04:03;;;;;;;12.90;11.30;;;-1.60;99.90;;;;;;5069677;28;20411;-64
2024/01/08 03:06:28;;;;;;;13.33;10.93;;;-1.70;99.90;;;;;;5069268;28;20411;-64
2024/01/08 03:08:55;;;;;;;12.20;10.90;;;-1.60;99.90;;;;;;5051580;28;20900;-64
2024/01/08 03:11:21;;;;;;;13.55;10.95;;;-1.60;99.90;;;;;;5068506;28;20415;-64
2024/01/08 03:13:47;;;;;;;12.97;10.30;;;-1.60;99.90;;;;;;5062670;28;20513;-64
2024/01/08 03:16:13;;;;;;;13.03;10.57;;;-1.50;99.90;;;;;;5068608;28;20407;-64
2024/01/08 03:18:38;;;;;;;12.35;10.15;;;-1.50;99.90;;;;;;5069040;28;20411;-64
2024/01/08 03:21:04;;;;;;;10.52;9.43;;;-1.50;99.90;;;;;;5069333;28;20400;-64
2024/01/08 03:23:30;;;;;;;11.40;9.35;;;-1.50;99.90;;;;;;5068964;28;20877;-64
2024/01/08 03:25:56;;;;;;;12.13;10.05;;;-1.50;99.90;;;;;;5066820;28;21009;-64
2024/01/08 03:28:21;;;;;;;11.88;9.52;;;-1.40;99.90;;;;;;5068729;28;20888;-64
2024/01/08 03:30:47;;;;;;;11.23;9.90;;;-1.50;99.90;;;;;;5067069;28;20411;-64
2024/01/08 03:33:13;;;;;;;10.17;8.83;;;-1.50;99.90;;;;;;5069104;28;20399;-64
2024/01/08 03:35:38;;;;;;;10.40;9.30;;;-1.40;99.90;;;;;;5068369;28;20428;-64
2024/01/08 03:38:04;;;;;;;11.52;9.20;;;-1.50;99.90;;;;;;5069244;28;20466;-64
2024/01/08 03:40:30;;;;;;;12.13;9.52;;;-1.40;99.90;;;;;;5051478;28;20482;-64
2024/01/08 03:42:55;;;;;;;11.30;9.63;;;-1.40;99.90;;;;;;5069341;28;20419;-64
2024/01/08 03:45:21;;;;;;;10.60;8.93;;;-1.40;99.90;;;;;;5068145;28;20419;-64
2024/01/08 03:47:47;;;;;;;10.97;9.43;;;-1.40;99.90;;;;;;5067393;28;20541;-64
2024/01/08 03:50:12;;;;;;;11.60;9.35;;;-1.40;99.90;;;;;;5050862;28;20493;-64
2024/01/08 03:52:38;;;;;;;10.32;9.18;;;-1.40;99.90;;;;;;5067359;28;20406;-64
2024/01/08 03:55:06;;;;;;;11.53;9.73;;;-1.40;99.90;;;;;;5066093;28;20430;-64
2024/01/08 03:57:32;;;;;;;10.38;9.27;;;-1.40;99.90;;;;;;5067031;28;20499;-64
2024/01/08 03:59:58;;;;;;;11.95;9.43;;;-1.40;99.90;;;;;;5069423;28;20483;-64
2024/01/08 04:02:23;;;;;;;12.70;9.53;;;-1.40;99.90;;;;;;5050433;28;20399;-64
2024/01/08 04:04:49;;;;;;;11.27;9.47;;;-1.40;99.90;;;;;;5072094;28;20399;-64
2024/01/08 04:07:15;;;;;;;11.27;9.20;;;-1.40;99.90;;;;;;5072975;28;20396;-64
2024/01/08 04:09:41;;;;;;;11.32;9.55;;;-1.50;99.90;;;;;;5071293;28;20407;-64
2024/01/08 04:12:07;;;;;;;11.35;9.18;;;-1.40;99.90;;;;;;5072859;28;20483;-64
2024/01/08 04:14:33;;;;;;;11.50;9.27;;;-1.40;99.90;;;;;;5071145;28;21018;-64
2024/01/08 04:16:58;;;;;;;10.23;8.70;;;-1.40;99.90;;;;;;5070591;28;20407;-64
2024/01/08 04:19:24;;;;;;;9.73;8.40;;;-1.40;99.90;;;;;;5072684;28;20418;-64
2024/01/08 04:21:50;;;;;;;8.55;7.65;;;-1.40;99.90;;;;;;5068338;28;20498;-64
2024/01/08 04:24:16;;;;;;;8.35;6.82;;;-1.50;99.90;;;;;;5063931;28;20427;-64
2024/01/08 04:26:42;;;;;;;7.63;6.80;;;-1.50;99.90;;;;;;5067627;28;20537;-64
2024/01/08 04:29:10;;;;;;;8.02;6.95;;;-1.40;99.90;;;;;;5072404;28;20425;-64
2024/01/08 04:31:37;;;;;;;8.43;7.10;;;-1.50;99.90;;;;;;5072506;28;20399;-64
2024/01/08 04:34:02;;;;;;;8.13;6.93;;;-1.50;99.90;;;;;;5070355;28;20480;-64
2024/01/08 04:36:28;;;;;;;7.78;6.97;;;-1.50;99.90;;;;;;5072209;28;20470;-64
2024/01/08 04:38:54;;;;;;;8.75;7.25;;;-1.50;99.90;;;;;;5072161;28;20407;-64
2024/01/08 04:41:20;;;;;;;8.37;7.30;;;-1.50;99.90;;;;;;5070357;28;20772;-64
2024/01/08 04:43:47;;;;;;;8.98;7.38;;;-1.50;99.90;;;;;;5071406;28;20415;-64
2024/01/08 04:46:13;;;;;;;8.70;7.07;;;-1.50;99.90;;;;;;5056590;28;20489;-64
2024/01/08 04:48:40;;;;;;;9.43;7.07;;;-1.50;99.90;;;;;;5069582;28;20411;-64
2024/01/08 04:51:06;;;;;;;8.63;7.30;;;-1.50;99.90;;;;;;5071229;28;20415;-64
2024/01/08 04:53:37;;;;;;;8.98;7.25;;;-1.50;99.90;;;;;;5070029;28;20793;-64
2024/01/08 04:56:03;;;;;;;9.48;7.60;;;-1.60;99.90;;;;;;5070949;28;20418;-64
2024/01/08 04:58:30;;;;;;;9.63;7.50;;;-1.50;99.90;;;;;;5071349;28;20396;-64
2024/01/08 05:00:55;;;;;;;9.23;7.75;;;-1.60;99.90;;;;;;5070387;28;21116;-64
2024/01/08 05:03:21;;;;;;;8.03;7.13;;;-1.50;99.90;;;;;;5069580;28;20416;-64
2024/01/08 05:05:47;;;;;;;9.10;7.67;;;-1.50;99.90;;;;;;5053691;28;20402;-64
2024/01/08 05:08:12;;;;;;;10.60;7.97;;;-1.60;99.90;;;;;;5053125;28;20435;-64
2024/01/08 05:10:38;;;;;;;8.57;7.47;;;-1.60;99.90;;;;;;5071087;28;20432;-64
2024/01/08 05:13:04;;;;;;;10.10;7.30;;;-1.50;99.90;;;;;;5070565;28;20749;-64
2024/01/08 05:15:30;;;;;;;8.93;7.57;;;-1.60;99.90;;;;;;5071671;28;20469;-64
2024/01/08 05:17:56;;;;;;;9.68;8.30;;;-1.60;99.90;;;;;;5052772;28;20678;-64
2024/01/08 05:20:22;;;;;;;10.03;8.23;;;-1.60;99.90;;;;;;5069181;28;20499;-64
2024/01/08 05:22:47;;;;;;;11.23;8.30;;;-1.60;99.90;;;;;;5071637;28;20396;-64
2024/01/08 05:25:13;;;;;;;9.10;8.07;;;-1.60;99.90;;;;;;5069207;28;20988;-64
2024/01/08 05:27:38;;;;;;;10.30;8.45;;;-1.60;99.90;;;;;;5070996;28;20418;-64
2024/01/08 05:30:06;;;;;;;10.73;8.60;;;-1.60;99.90;;;;;;5069849;28;20924;-64
2024/01/08 05:32:31;;;;;;;10.65;8.68;;;-1.60;99.90;;;;;;5052729;28;20495;-64
2024/01/08 05:34:57;;;;;;;9.68;8.52;;;-1.60;99.90;;;;;;5071348;28;20968;-64
2024/01/08 05:37:23;;;;;;;10.63;8.97;;;-1.60;99.90;;;;;;5069786;28;20765;-64
2024/01/08 05:39:48;;;;;;;11.13;9.13;;;-1.60;99.90;;;;;;5069354;28;20452;-64
2024/01/08 05:42:15;;;;;;;10.73;8.55;;;-1.60;99.90;;;;;;5069519;28;20488;-64
2024/01/08 05:44:41;;;;;;;11.20;8.95;;;-1.60;99.90;;;;;;5069860;28;20419;-64
2024/01/08 05:47:07;;;;;;;10.13;8.82;;;-1.70;99.90;;;;;;5071230;28;20528;-65
2024/01/08 05:49:33;;;;;;;12.27;9.43;;;-1.60;99.90;;;;;;5070728;28;20904;-64
2024/01/08 05:51:59;;;;;;;11.53;8.90;;;-1.60;99.90;;;;;;5070807;28;20492;-64
2024/01/08 05:54:24;;;;;;;11.77;9.38;;;-1.60;99.90;;;;;;5068716;28;20415;-64
2024/01/08 05:56:50;;;;;;;11.18;9.20;;;-1.60;99.90;;;;;;5070083;28;20810;-64
2024/01/08 05:59:16;;;;;;;10.85;9.10;;;-1.70;99.90;;;;;;5069530;28;20457;-64
2024/01/08 06:01:42;;;;;;;10.43;8.57;;;-1.60;99.90;;;;;;5070911;28;20757;-64
2024/01/08 06:04:08;;;;;;;13.23;10.00;;;-1.60;99.90;;;;;;5070287;28;20400;-64
2024/01/08 06:06:33;;;;;;;10.23;9.03;;;-1.60;99.90;;;;;;5069175;28;20415;-64
2024/01/08 06:08:59;;;;;;;10.57;8.93;;;-1.60;99.90;;;;;;5068737;28;20490;-64
2024/01/08 06:11:25;;;;;;;12.73;9.67;;;-1.60;99.90;;;;;;5070623;28;20402;-64
2024/01/08 06:13:51;;;;;;;12.27;9.23;;;-1.70;99.90;;;;;;5066467;28;20423;-65
2024/01/08 06:16:17;;;;;;;12.30;9.57;;;-1.70;99.90;;;;;;5067892;28;20419;-64
2024/01/08 06:18:43;;;;;;;10.80;8.80;;;-1.70;99.90;;;;;;5052411;28;20408;-65
2024/01/08 06:21:09;;;;;;;11.00;9.47;;;-1.60;99.90;;;;;;5075461;28;20478;-64
2024/01/08 06:23:35;;;;;;;11.37;9.30;;;-1.60;99.90;;;;;;5069222;28;20399;-64
2024/01/08 06:26:04;;;;;;;13.43;9.53;;;-1.60;99.90;;;;;;5067949;28;20427;-64
2024/01/08 06:28:30;;;;;;;10.93;9.45;;;-1.60;99.90;;;;;;5070209;28;20443;-64
2024/01/08 06:30:56;;;;;;;12.13;10.05;;;-1.60;99.90;;;;;;5069857;28;20906;-64
2024/01/08 06:33:22;;;;;;;14.82;9.18;;;-1.60;99.90;;;;;;5069443;28;20404;-64
2024/01/08 06:35:48;;;;;;;11.60;9.27;;;-1.60;99.90;;;;;;5068532;28;20455;-64
2024/01/08 06:38:14;;;;;;;11.50;9.30;;;-1.60;99.90;;;;;;5069951;28;20423;-64
2024/01/08 06:40:39;;;;;;;11.75;9.77;;;-1.60;99.90;;;;;;5068818;28;20407;-64
2024/01/08 06:43:05;;;;;;;11.57;9.85;;;-1.60;99.90;;;;;;5051589;28;20406;-64
2024/01/08 06:45:31;;;;;;;11.63;9.77;;;-1.50;99.90;;;;;;5051460;28;20498;-64
2024/01/08 06:47:57;;;;;;;12.23;9.75;;;-1.50;99.90;;;;;;5069246;28;20439;-64
2024/01/08 06:50:23;;;;;;;11.70;9.73;;;-1.50;99.90;;;;;;5068625;28;20404;-64
2024/01/08 06:52:48;;;;;;;12.83;9.40;;;-1.60;99.90;;;;;;5068028;28;20396;-64
2024/01/08 06:55:14;;;;;;;12.67;9.90;;;-1.60;99.90;;;;;;5050612;28;20419;-64
2024/01/08 06:57:40;;;;;;;14.27;9.50;;;-1.50;99.90;;;;;;5069573;28;20756;-64
2024/01/08 07:00:08;;;;;;;12.05;9.88;;;-1.50;99.90;;;;;;5068040;28;20435;-64
2024/01/08 07:02:33;;;;;;;12.70;10.20;;;-1.50;99.90;;;;;;5049207;28;20408;-63
2024/01/08 07:04:59;;;;;;;12.95;10.00;;;-1.50;99.90;;;;;;5069258;28;20402;-64
2024/01/08 07:07:26;;;;;;;12.83;10.37;;;-1.50;99.90;;;;;;5068397;28;20411;-64
2024/01/08 07:09:53;;;;;;;12.02;9.95;;;-1.50;99.90;;;;;;5048292;28;20405;-64
2024/01/08 07:12:18;;;;;;;11.40;9.63;;;-1.50;99.90;;;;;;5067961;28;20570;-64
2024/01/08 07:14:48;;;;;;;14.67;10.13;;;-1.50;99.90;;;;;;5067659;28;20912;-64
2024/01/08 07:17:14;;;;;;;11.55;9.27;;;-1.50;99.90;;;;;;5066777;28;20518;-64
2024/01/08 07:19:39;;;;;;;12.88;9.88;;;-1.50;99.90;;;;;;5065854;28;20466;-64
2024/01/08 07:22:05;;;;;;;12.77;9.68;;;-1.50;99.90;;;;;;5067953;28;20901;-64
2024/01/08 07:24:31;;;;;;;12.37;9.27;;;-1.40;99.90;;;;;;5069375;28;20415;-64
2024/01/08 07:26:59;;;;;;;10.43;9.30;;;-1.40;99.90;;;;;;5066743;28;20923;-64
2024/01/08 07:29:25;;;;;;;11.30;9.07;;;-1.40;99.90;;;;;;5070091;28;20733;-64
2024/01/08 07:31:51;;;;;;;12.50;9.30;;;-1.40;99.90;;;;;;5069505;28;20392;-64
2024/01/08 07:34:16;;;;;;;11.70;9.30;;;-1.40;99.90;;;;;;5067056;28;20416;-64
2024/01/08 07:36:42;;;;;;;11.87;9.50;;;-1.40;99.90;;;;;;5068503;28;20422;-64
2024/01/08 07:39:08;;;;;;;10.87;8.77;;;-1.40;99.90;;;;;;5068602;28;20449;-64
2024/01/08 07:41:33;;;;;;;11.60;8.95;;;-1.40;99.90;;;;;;5069085;28;20427;-64
2024/01/08 07:43:59;;;;;;;11.82;9.93;;;-1.40;99.90;;;;;;5050901;28;20834;-64
2024/01/08 07:46:25;;;;;;;12.33;9.30;;;-1.30;99.90;;;;;;5067029;28;20423;-64
2024/01/08 07:48:50;;;;;;;11.20;8.67;;;-1.30;99.90;;;;;;5069062;28;20400;-64
2024/01/08 07:51:21;;;;;;;11.43;8.50;;;-1.30;99.90;;;;;;5067485;28;20803;-64
2024/01/08 07:53:47;;;;;;;11.57;8.85;;;-1.40;99.90;;;;;;5069014;28;20420;-64
2024/01/08 07:56:13;;;;;;;10.45;8.27;;;-1.40;99.90;;;;;;5066112;28;20941;-64
2024/01/08 07:58:39;;;;;;;9.65;7.63;;;-1.30;99.90;;;;;;5068748;28;20406;-64
2024/01/08 08:01:05;;;;;;;10.48;8.32;;;-1.30;99.90;;;;;;5067820;28;20913;-64
2024/01/08 08:03:30;;;;;;;10.30;7.88;;;-1.30;99.90;;;;;;5068723;28;20403;-65
2024/01/08 08:05:58;;;;;;;10.67;7.90;;;-1.20;99.90;;;;;;5068703;28;20396;-64
2024/01/08 08:08:23;;;;;;;10.15;8.00;;;-1.20;99.90;;;;;;5050647;28;20471;-64
2024/01/08 08:10:49;;;;;;;9.90;7.50;;;-1.20;99.90;;;;;;5067400;28;20471;-64
2024/01/08 08:13:15;;;;;;;9.10;7.20;;;-1.20;99.90;;;;;;5050610;28;20396;-64
2024/01/08 08:15:40;;;;;;;8.43;6.77;;;-1.20;99.90;;;;;;5067236;28;20840;-65
2024/01/08 08:18:07;;;;;;;8.43;6.90;;;-1.20;99.90;;;;;;5066376;28;20487;-64
2024/01/08 08:20:33;;;;;;;9.10;7.22;;;-1.10;99.90;;;;;;5066971;28;20412;-64
2024/01/08 08:22:59;;;;;;;8.50;6.75;;;-1.10;99.90;;;;;;5067030;28;20954;-64
2024/01/08 08:25:25;;;;;;;9.73;6.88;;;-1.10;99.90;;;;;;5068502;28;20427;-64
2024/01/08 08:27:51;;;;;;;8.33;6.63;;;-1.10;99.90;;;;;;5068445;28;20456;-64
2024/01/08 08:30:19;;;;;;;8.20;6.53;;;-1.10;99.90;;;;;;5067936;28;20734;-65
2024/01/08 08:32:45;;;;;;;7.47;6.10;;;-1.10;99.90;;;;;;5067032;28;20769;-64
2024/01/08 08:35:11;;;;;;;10.50;6.78;;;-1.10;99.90;;;;;;5068054;28;20581;-64
2024/01/08 08:37:36;;;;;;;10.37;6.97;;;-1.10;99.90;;;;;;5067521;28;20474;-64
2024/01/08 08:40:03;;;;;;;7.67;6.07;;;-1.10;99.90;;;;;;5068702;28;20403;-64
2024/01/08 08:42:29;;;;;;;8.95;6.30;;;-1.00;99.90;;;;;;5067723;28;20418;-65
2024/01/08 08:44:55;;;;;;;9.90;6.82;;;-1.00;99.90;;;;;;5068809;28;20400;-64
2024/01/08 08:47:21;;;;;;;7.00;6.20;;;-1.00;99.90;;;;;;5050223;28;20908;-64
2024/01/08 08:49:47;;;;;;;7.57;6.15;;;-1.00;99.90;;;;;;5050909;28;20419;-64
2024/01/08 08:52:13;;;;;;;10.47;6.67;;;-1.00;99.90;;;;;;5044301;28;20515;-64
2024/01/08 08:54:39;;;;;;;7.55;6.28;;;-0.90;99.90;;;;;;5060644;28;20500;-64
2024/01/08 08:57:04;;;;;;;9.27;6.60;;;-0.90;99.90;;;;;;5071640;28;20822;-64
2024/01/08 08:59:30;;;;;;;7.63;6.38;;;-0.90;99.90;;;;;;5037461;28;20910;-64
2024/01/08 09:01:57;;;;;;;9.73;7.00;;;-0.90;99.90;;;;;;5070520;28;20444;-64
2024/01/08 09:04:23;;;;;;;8.30;6.85;;;-0.90;99.90;;;;;;5070928;28;20484;-64
2024/01/08 09:06:49;;;;;;;10.30;6.97;;;-0.90;99.90;;;;;;5072073;28;20407;-64
2024/01/08 09:09:15;;;;;;;10.98;7.40;;;-0.80;99.90;;;;;;5071739;28;20457;-64
2024/01/08 09:11:40;;;;;;;11.30;7.40;;;-0.80;99.90;;;;;;5065780;28;20508;-65
2024/01/08 09:14:08;;;;;;;9.13;7.30;;;-0.80;99.90;;;;;;5072454;28;20759;-64
2024/01/08 09:16:35;;;;;;;8.25;6.88;;;-0.70;99.90;;;;;;5072241;28;20498;-64
2024/01/08 09:19:00;;;;;;;8.50;7.13;;;-0.80;99.90;;;;;;5072603;28;21279;-64
2024/01/08 09:21:26;;;;;;;8.32;6.85;;;-0.70;99.90;;;;;;5068613;28;20793;-64
2024/01/08 09:23:52;;;;;;;8.63;6.88;;;-0.70;99.90;;;;;;5069789;28;21069;-64
2024/01/08 09:26:18;;;;;;;8.65;6.68;;;-0.70;99.90;;;;;;5069679;28;20425;-63
2024/01/08 09:28:45;;;;;;;8.93;6.88;;;-0.70;99.90;;;;;;5069232;28;20497;-64
2024/01/08 09:31:11;;;;;;;8.50;7.05;;;-0.70;99.90;;;;;;5067383;28;20421;-64
2024/01/08 09:33:37;;;;;;;7.28;6.53;;;-0.60;99.90;;;;;;5070108;28;20795;-64
2024/01/08 09:36:03;;;;;;;9.80;6.93;;;-0.60;99.90;;;;;;5059951;28;20474;-64
2024/01/08 09:38:29;;;;;;;8.02;6.70;;;-0.60;99.90;;;;;;5076539;28;20398;-64
2024/01/08 09:40:55;;;;;;;9.47;6.90;;;-0.60;99.90;;;;;;5074323;28;20399;-64
2024/01/08 09:43:22;;;;;;;8.13;6.40;;;-0.60;99.90;;;;;;5072525;28;20403;-64
2024/01/08 09:46:07;;;;;;;9.43;6.70;;;-0.60;99.90;;;;;;5067494;28;20484;-64
2024/01/08 09:48:34;;;;;;;7.82;6.40;;;-0.60;99.90;;;;;;5072755;28;21635;-64
2024/01/08 09:51:00;;;;;;;8.40;6.75;;;-0.60;99.90;;;;;;5067276;28;20412;-64
2024/01/08 09:53:30;;;;;;;8.88;6.80;;;-0.60;99.90;;;;;;5069503;28;20395;-64
2024/01/08 09:55:58;;;;;;;8.40;6.70;;;-0.50;99.90;;;;;;5067711;28;20494;-64
2024/01/08 09:58:25;;;;;;;9.10;7.03;;;-0.50;99.90;;;;;;5069332;28;20391;-64
2024/01/08 10:00:52;;;;;;;7.90;6.40;;;-0.50;99.90;;;;;;5063497;28;20419;-64
2024/01/08 10:03:18;;;;;;;9.57;6.40;;;-0.50;99.90;;;;;;5067105;28;20827;-64
2024/01/08 10:05:43;;;;;;;6.95;5.70;;;-0.40;99.90;;;;;;5050537;28;21267;-64
2024/01/08 10:08:09;;;;;;;7.85;6.15;;;-0.50;99.90;;;;;;5067697;28;20398;-64
2024/01/08 10:10:35;;;;;;;7.28;5.95;;;-0.50;99.90;;;;;;5065419;28;20396;-64
2024/01/08 10:13:01;;;;;;;7.03;6.13;;;-0.40;99.90;;;;;;5062842;28;20936;-64
2024/01/08 10:15:28;;;;;;;6.53;5.68;;;-0.40;99.90;;;;;;5070987;28;20840;-64
2024/01/08 10:18:01;;;;;;;6.95;5.93;;;-0.40;99.90;;;;;;5066883;28;20420;-64
2024/01/08 10:20:27;;;;;;;7.25;5.57;;;-0.40;99.90;;;;;;5050425;28;20439;-64
2024/01/08 10:23:08;;;;;;;7.60;5.78;;;-0.40;99.90;;;;;;5068376;28;20402;-64
2024/01/08 10:25:38;;;;;;;7.72;6.30;;;-0.50;99.90;;;;;;5048271;28;20494;-64
2024/01/08 10:28:10;;;;;;;6.85;5.50;;;-0.50;99.90;;;;;;5069313;28;20402;-64
2024/01/08 10:30:36;;;;;;;6.85;5.70;;;-0.40;99.90;;;;;;5068482;28;20382;-64
2024/01/08 10:33:03;;;;;;;8.47;6.17;;;-0.40;99.90;;;;;;5067246;28;20968;-65
2024/01/08 10:35:29;;;;;;;7.40;5.83;;;-0.40;99.90;;;;;;5045376;28;20484;-64
2024/01/08 10:37:58;;;;;;;7.67;5.93;;;-0.20;99.90;;;;;;5049903;28;20429;-64
2024/01/08 10:40:26;;;;;;;6.38;5.30;;;0.00;99.90;;;;;;5068486;28;20434;-64
2024/01/08 10:42:52;;;;;;;7.53;5.88;;;0.10;99.90;;;;;;5069012;28;20437;-64
2024/01/08 10:45:18;;;;;;;6.10;5.40;;;0.10;99.90;;;;;;5067829;28;20398;-64
2024/01/08 10:48:11;;;;;;;7.38;5.40;;;0.10;99.90;;;;;;5063362;28;20388;-64
2024/01/08 10:50:44;;;;;;;8.55;5.50;;;0.00;99.90;;;;;;5061458;28;20438;-64
2024/01/08 10:53:26;;;;;;;7.47;5.53;;;0.00;99.90;;;;;;5067721;28;20395;-64
2024/01/08 10:55:52;;;;;;;6.93;5.32;;;0.00;99.90;;;;;;5067005;28;20415;-64
2024/01/08 10:58:29;;;;;;;7.57;5.70;;;0.10;99.90;;;;;;5067016;28;20445;-64
2024/01/08 11:00:56;;;;;;;9.98;5.82;;;0.20;99.90;;;;;;5067218;28;20424;-64
2024/01/08 11:03:21;;;;;;;8.77;6.10;;;0.30;99.90;;;;;;5065246;28;20455;-64
2024/01/08 11:05:51;;;;;;;9.37;6.40;;;0.50;99.90;;;;;;5047340;28;20567;-64
2024/01/08 11:08:21;;;;;;;6.80;5.82;;;0.60;99.90;;;;;;5065914;28;20411;-64
2024/01/08 11:10:49;;;;;;;7.18;6.00;;;0.70;99.90;;;;;;5065111;28;20912;-64
2024/01/08 11:13:16;;;;;;;7.82;5.47;;;0.70;99.90;;;;;;5064164;28;20424;-64
2024/01/08 11:15:45;;;;;;;7.90;5.53;;;0.80;99.90;;;;;;5062922;28;20446;-64
2024/01/08 11:18:25;;;;;;;7.57;5.68;;;0.80;99.90;;;;;;5048227;28;20451;-64
2024/01/08 11:20:51;;;;;;;6.97;5.47;;;0.90;99.90;;;;;;5062262;28;20418;-64
2024/01/08 11:23:40;;;;;;;7.15;5.93;;;0.90;99.90;;;;;;5064426;28;20407;-64
2024/01/08 11:26:09;;;;;;;6.70;5.75;;;1.00;99.90;;;;;;5045131;28;20522;-64
2024/01/08 11:28:37;;;;;;;7.82;6.35;;;1.10;99.90;;;;;;5066547;28;20489;-64
2024/01/08 11:31:38;;;;;;;7.43;6.10;;;1.20;99.90;;;;;;5068121;28;20479;-64
2024/01/08 11:34:42;;;;;;;7.53;5.43;;;1.10;99.90;;;;;;5086780;28;20453;-64
2024/01/08 11:37:31;;;;;;;8.15;5.30;;;1.20;99.90;;;;;;5067433;28;20440;-64
2024/01/08 11:39:57;;;;;;;6.72;5.50;;;1.20;99.90;;;;;;5072168;28;20444;-64
2024/01/08 11:42:23;;;;;;;8.27;5.88;;;1.20;99.90;;;;;;5067027;28;20420;-64
2024/01/08 11:44:49;;;;;;;7.40;5.50;;;1.30;99.90;;;;;;5061872;28;20457;-64
2024/01/08 11:47:16;;;;;;;8.00;5.72;;;1.30;99.90;;;;;;5047723;28;20799;-65
2024/01/08 11:49:42;;;;;;;8.20;5.88;;;1.40;99.90;;;;;;5068695;28;20843;-65
2024/01/08 11:52:09;;;;;;;7.15;5.80;;;1.30;99.90;;;;;;5067226;28;20562;-65
2024/01/08 11:54:35;;;;;;;6.57;5.85;;;1.30;99.90;;;;;;5067531;28;20438;-65
2024/01/08 11:57:05;;;;;;;6.77;5.70;;;1.20;99.90;;;;;;5050280;28;20423;-65
2024/01/08 11:59:35;;;;;;;6.50;5.50;;;1.10;99.90;;;;;;5069344;28;20402;-65
2024/01/08 12:02:16;;;;;;;6.80;5.68;;;1.20;99.90;;;;;;5049294;28;20475;-65
2024/01/08 12:04:58;;;;;;;7.70;5.55;;;1.20;99.90;;;;;;5068477;28;20398;-65
2024/01/08 12:07:28;;;;;;;6.55;5.38;;;1.20;99.90;;;;;;5033434;28;21007;-65
2024/01/08 12:10:01;;;;;;;7.72;5.20;;;1.00;99.90;;;;;;5062494;28;20984;-65
2024/01/08 12:12:27;;;;;;;7.85;5.50;;;1.00;99.90;;;;;;5065856;28;20408;-65
2024/01/08 12:14:53;;;;;;;8.75;5.97;;;0.90;99.90;;;;;;5066005;28;20637;-65
2024/01/08 12:17:19;;;;;;;5.68;4.80;;;1.00;99.90;;;;;;5063476;28;20449;-65
2024/01/08 12:19:49;;;;;;;7.25;5.57;;;0.90;99.90;;;;;;5067198;28;20455;-65
2024/01/08 12:22:17;;;;;;;9.15;5.50;;;0.90;99.90;;;;;;5066949;28;20452;-65
2024/01/08 12:24:48;;;;;;;8.00;6.20;;;0.90;99.90;;;;;;5070412;28;20425;-64
2024/01/08 12:27:18;;;;;;;7.80;6.38;;;0.90;99.90;;;;;;5071670;28;20384;-64
2024/01/08 12:29:45;;;;;;;8.53;5.97;;;0.90;99.90;;;;;;5071051;28;20392;-65
2024/01/08 12:32:14;;;;;;;7.90;6.17;;;0.70;99.90;;;;;;5072302;28;20395;-65
2024/01/08 12:34:40;;;;;;;7.50;6.32;;;0.60;99.90;;;;;;5063721;28;20434;-65
2024/01/08 12:37:07;;;;;;;8.83;6.10;;;0.70;99.90;;;;;;5067735;28;20429;-64
2024/01/08 12:39:34;;;;;;;7.28;5.97;;;0.70;99.90;;;;;;5072177;28;20402;-65
2024/01/08 12:42:07;;;;;;;7.23;5.87;;;0.70;99.90;;;;;;5069759;28;20416;-65